Time;durP1;ratioP1;P1;durP2;ratioP2;P2;SDS_P1;SDS_P2;PMS_P1;PMS_P2;Temp;Humidity;BMP_temperature;BMP_pressure;BME280_temperature;BME280_humidity;BME280_pressure;Samples;Min_cycle;Max_cycle;Signal;HPM_P1;HPM_P2
2022/12/26 00:01:28;;;;;;;1.52;1.42;;;;;;;10.58;65.28;101091.56;18358245;32;20105;-59
2022/12/26 00:11:31;;;;;;;1.65;1.25;;;;;;;10.71;64.89;101100.38;18356880;32;20097;-59
2022/12/26 00:21:36;;;;;;;0.70;0.70;;;;;;;10.59;65.07;101085.50;18363749;32;20119;-59
2022/12/26 00:31:39;;;;;;;0.88;0.88;;;;;;;10.52;64.98;101079.34;18419753;32;20452;-59
2022/12/26 00:41:44;;;;;;;1.75;1.50;;;;;;;10.52;64.83;101070.63;18419008;32;20133;-59
2022/12/26 00:51:47;;;;;;;2.75;2.37;;;;;;;10.47;64.97;101107.13;18419136;32;20093;-59
2022/12/26 01:01:52;;;;;;;1.17;1.12;;;;;;;10.37;65.13;101106.16;18417685;32;20117;-59
2022/12/26 01:11:55;;;;;;;0.75;0.62;;;;;;;10.27;65.17;101079.06;18417723;32;20417;-59
2022/12/26 01:22:00;;;;;;;2.28;0.93;;;;;;;10.13;65.29;101067.63;18417718;32;20092;-59
2022/12/26 01:32:03;;;;;;;0.70;0.70;;;;;;;10.08;65.20;101078.03;18416595;32;20437;-59
2022/12/26 01:42:12;;;;;;;2.05;1.33;;;;;;;9.81;65.72;101108.13;18416170;32;20157;-59
2022/12/26 01:52:20;;;;;;;1.25;1.23;;;;;;;9.57;66.47;101070.47;18415620;32;20109;-59
2022/12/26 02:02:27;;;;;;;2.62;2.20;;;;;;;9.63;65.93;101068.81;18421959;32;20161;-59
2022/12/26 02:12:32;;;;;;;0.70;0.70;;;;;;;9.32;66.51;101058.84;18426522;32;20111;-59
2022/12/26 02:23:29;;;;;;;1.20;1.10;;;;;;;9.21;66.73;101069.12;18424981;32;20081;-59
2022/12/26 02:33:45;;;;;;;2.15;1.17;;;;;;;9.19;66.75;101054.34;18424633;32;20452;-59
2022/12/26 02:43:54;;;;;;;0.70;0.70;;;;;;;9.16;66.63;101000.44;18423605;32;20104;-59
2022/12/26 03:14:56;;;;;;;0.90;0.90;;;;;;;8.74;67.10;101018.97;18422645;32;20140;-59
2022/12/26 03:35:23;;;;;;;0.68;0.68;;;;;;;8.55;68.10;101045.56;18422117;32;20085;-59
2022/12/26 04:58:29;;;;;;;1.12;1.02;;;;;;;8.72;68.57;101023.25;18419472;32;20339;-59
2022/12/26 05:29:18;;;;;;;1.75;1.65;;;;;;;8.81;68.34;101032.06;18416946;32;20133;-60
2022/12/26 05:39:23;;;;;;;0.80;0.80;;;;;;;7.99;72.25;100995.16;18426105;32;20600;-59
2022/12/26 05:49:26;;;;;;;2.67;2.47;;;;;;;8.55;69.91;101030.81;18426618;31;20121;-60
2022/12/26 05:59:30;;;;;;;1.05;0.85;;;;;;;8.81;68.95;101029.47;18425884;32;20107;-59
2022/12/26 06:09:33;;;;;;;3.60;1.75;;;;;;;8.74;69.26;101011.16;18420178;32;20133;-60
2022/12/26 06:19:38;;;;;;;1.25;1.25;;;;;;;8.79;69.15;101018.16;18422280;32;20468;-60
2022/12/26 06:29:48;;;;;;;0.75;0.75;;;;;;;8.89;68.78;101014.84;18366944;32;20111;-60
2022/12/26 06:39:53;;;;;;;1.42;1.37;;;;;;;8.85;69.03;100989.63;18360518;32;20124;-59
2022/12/26 06:49:56;;;;;;;2.83;2.08;;;;;;;8.94;68.92;100994.97;18431682;31;20084;-59
2022/12/26 07:00:00;;;;;;;0.90;0.90;;;;;;;8.92;69.07;101006.19;18629773;31;20115;-59
2022/12/26 07:10:05;;;;;;;0.60;0.60;;;;;;;8.96;69.11;101006.25;18628640;31;20152;-59
2022/12/26 07:20:11;;;;;;;1.20;1.20;;;;;;;8.86;69.52;101022.59;18628283;31;20096;-59
2022/12/26 07:30:14;;;;;;;0.60;0.60;;;;;;;8.93;69.40;101032.28;18628236;31;20109;-59
2022/12/26 07:40:18;;;;;;;0.60;0.60;;;;;;;8.94;69.67;101041.81;18627734;31;20088;-59
2022/12/26 07:50:22;;;;;;;0.82;0.82;;;;;;;8.99;69.48;101042.75;18543687;31;20112;-59
2022/12/26 08:00:27;;;;;;;2.35;2.25;;;;;;;9.11;69.41;101038.59;18356197;32;20509;-59
2022/12/26 08:10:30;;;;;;;7.40;1.77;;;;;;;8.92;70.40;101037.44;18357907;32;20111;-59
2022/12/26 08:20:38;;;;;;;1.70;1.30;;;;;;;9.10;69.91;101053.34;18356067;32;20086;-60
2022/12/26 08:30:42;;;;;;;3.83;3.50;;;;;;;9.35;69.32;101063.22;18355906;32;20117;-59
2022/12/26 08:40:54;;;;;;;0.82;0.82;;;;;;;9.32;69.71;101063.19;18355300;32;20116;-59
2022/12/26 08:50:59;;;;;;;3.55;2.17;;;;;;;9.43;69.38;101074.63;18354696;32;20089;-59
2022/12/26 09:01:09;;;;;;;0.60;0.60;;;;;;;9.69;68.75;101082.78;18354347;32;20128;-59
2022/12/26 09:11:14;;;;;;;1.75;1.65;;;;;;;9.52;69.17;101076.47;18360348;32;20093;-59
2022/12/26 09:21:19;;;;;;;1.75;1.20;;;;;;;9.70;68.87;101075.84;18363208;32;20115;-60
2022/12/26 09:31:23;;;;;;;1.77;1.67;;;;;;;9.93;68.13;101062.19;18362756;32;20112;-59
2022/12/26 09:41:40;;;;;;;2.22;1.75;;;;;;;10.02;68.10;101072.72;18362651;32;20094;-59
2022/12/26 09:51:47;;;;;;;1.45;1.35;;;;;;;10.14;67.61;101072.84;18362164;32;20090;-60
2022/12/26 10:01:52;;;;;;;1.87;1.77;;;;;;;10.19;67.76;101083.31;18423786;32;20109;-59
2022/12/26 10:12:13;;;;;;;1.37;1.30;;;;;;;10.41;67.48;101080.94;18425553;32;20727;-59
2022/12/26 10:22:34;;;;;;;4.35;1.37;;;;;;;10.33;67.74;101078.25;18417630;32;20100;-59
2022/12/26 10:32:42;;;;;;;1.30;1.20;;;;;;;9.78;69.63;101074.22;18360662;32;20113;-59
2022/12/26 10:42:50;;;;;;;1.10;1.00;;;;;;;8.98;72.90;101048.81;18360369;32;20089;-59
2022/12/26 10:52:53;;;;;;;3.62;1.33;;;;;;;9.52;71.49;101027.84;18357680;31;20385;-59
2022/12/26 11:03:05;;;;;;;1.98;1.80;;;;;;;10.05;69.83;101015.34;18359473;32;20127;-60
2022/12/26 11:13:18;;;;;;;1.37;1.27;;;;;;;10.63;68.28;101008.94;18358984;32;20104;-59
2022/12/26 11:23:26;;;;;;;1.65;1.33;;;;;;;10.98;66.93;100996.97;18358674;32;20089;-60
2022/12/26 11:33:31;;;;;;;0.65;0.65;;;;;;;10.47;67.52;100987.06;18374627;31;20151;-60
2022/12/26 11:43:36;;;;;;;1.90;1.25;;;;;;;10.65;67.32;100975.87;18359819;31;202892;-59
2022/12/26 11:53:39;;;;;;;0.95;0.90;;;;;;;10.90;66.59;100965.56;18357540;32;20150;-59
2022/12/26 12:03:45;;;;;;;0.90;0.90;;;;;;;10.88;66.35;100971.69;18381098;32;20456;-60
2022/12/26 12:14:03;;;;;;;1.77;0.85;;;;;;;11.19;65.43;100951.81;18420725;32;20145;-60
2022/12/26 12:24:24;;;;;;;1.37;1.35;;;;;;;11.58;64.35;100937.97;18420177;32;20093;-60
2022/12/26 12:34:35;;;;;;;0.67;0.67;;;;;;;11.57;64.23;100946.66;18419695;32;20099;-59
2022/12/26 12:44:53;;;;;;;0.60;0.60;;;;;;;10.67;66.67;100950.66;18407130;32;20073;-60
2022/12/26 12:55:15;;;;;;;1.10;1.00;;;;;;;11.43;65.17;100941.41;18408342;31;20092;-60
2022/12/26 13:05:37;;;;;;;2.28;2.08;;;;;;;10.10;69.54;100956.28;18414797;32;20112;-60
2022/12/26 13:15:41;;;;;;;;;;;;;;;11.13;66.44;100936.09;18392426;32;20430;-60
2022/12/26 13:25:48;;;;;;;2.65;1.83;;;;;;;11.37;65.41;100942.25;18414023;32;20252;-60
2022/12/26 13:35:54;;;;;;;1.20;0.70;;;;;;;11.56;64.51;100937.06;18414851;32;20119;-60
2022/12/26 13:46:00;;;;;;;0.70;0.65;;;;;;;11.40;65.37;100946.63;18413267;32;20182;-59
2022/12/26 13:56:25;;;;;;;1.75;1.30;;;;;;;11.46;65.44;100950.13;18412989;32;20196;-60
2022/12/26 14:06:58;;;;;;;1.75;1.60;;;;;;;11.43;65.37;100944.00;18358453;32;20097;-60
2022/12/26 14:17:10;;;;;;;2.05;0.88;;;;;;;11.49;65.24;100950.16;18358386;32;20108;-60
2022/12/26 14:27:25;;;;;;;1.92;1.15;;;;;;;11.47;65.22;100962.31;18368798;32;20097;-60
2022/12/26 14:37:36;;;;;;;1.17;0.85;;;;;;;11.44;65.04;100961.47;18386309;32;20430;-60
2022/12/26 14:47:43;;;;;;;0.82;0.82;;;;;;;11.26;65.28;100962.25;18401319;31;20140;-60
2022/12/26 14:57:48;;;;;;;0.80;0.80;;;;;;;11.06;65.47;100963.06;18655577;31;20087;-60
2022/12/26 15:08:09;;;;;;;1.45;1.40;;;;;;;10.89;65.27;100961.22;18654982;31;20178;-60
2022/12/26 15:18:36;;;;;;;4.25;3.92;;;;;;;10.63;65.12;100950.62;18653801;31;20149;-60
2022/12/26 15:29:03;;;;;;;;;;;;;;;10.34;65.31;100933.88;18649992;31;20375;-60
2022/12/26 15:39:18;;;;;;;1.00;1.00;;;;;;;10.05;65.10;100926.66;18624804;31;20411;-60
2022/12/26 15:49:37;;;;;;;0.65;0.65;;;;;;;9.73;65.37;100927.25;18566531;31;20437;-60
2022/12/26 15:59:55;;;;;;;0.80;0.80;;;;;;;9.47;65.14;100919.19;18354227;32;20125;-60
2022/12/26 16:09:59;;;;;;;1.90;1.80;;;;;;;9.05;65.74;100939.53;18353790;32;20100;-60
2022/12/26 16:22:42;;;;;;;1.05;1.05;;;;;;;8.91;65.60;100939.34;18352015;32;20112;-60
2022/12/26 16:30:42;;;;;;;1.60;1.50;;;;;;;8.54;65.68;100926.72;18357692;32;20096;-60
2022/12/26 16:40:49;;;;;;;0.57;0.57;;;;;;;8.31;65.73;100930.69;18352338;32;20108;-60
2022/12/26 16:50:54;;;;;;;2.03;1.92;;;;;;;8.02;66.38;100928.47;18380084;31;20116;-60
2022/12/26 17:01:07;;;;;;;0.95;0.95;;;;;;;8.20;66.62;100940.00;18415459;32;20740;-60
2022/12/26 17:11:10;;;;;;;3.50;2.92;;;;;;;8.38;67.61;100939.44;18402992;32;20094;-60
2022/12/26 17:21:28;;;;;;;0.52;0.52;;;;;;;8.60;68.06;100939.78;18405868;32;20441;-60
2022/12/26 17:31:35;;;;;;;1.42;1.33;;;;;;;8.83;68.22;100931.44;18419578;31;20115;-60
2022/12/26 17:41:43;;;;;;;1.42;0.90;;;;;;;8.94;68.76;100911.63;18423870;32;20125;-60
2022/12/26 17:51:46;;;;;;;1.92;1.83;;;;;;;8.91;69.98;100911.56;18423461;31;20110;-60
2022/12/26 18:02:01;;;;;;;4.05;3.17;;;;;;;9.23;70.73;100912.81;18367429;32;20149;-60
2022/12/26 18:12:05;;;;;;;2.45;2.03;;;;;;;9.02;72.33;100899.59;18358366;32;20094;-60
2022/12/26 18:22:14;;;;;;;2.85;2.60;;;;;;;9.48;70.72;100879.22;18358198;32;20117;-60
2022/12/26 18:32:23;;;;;;;1.67;1.25;;;;;;;9.30;71.88;100863.44;18357614;32;20731;-60
2022/12/26 18:42:28;;;;;;;0.90;0.90;;;;;;;9.52;71.00;100858.44;18411339;32;20349;-60
2022/12/26 18:52:31;;;;;;;0.93;0.93;;;;;;;9.20;71.78;100852.88;18420890;32;20097;-60
2022/12/26 19:02:35;;;;;;;1.55;1.50;;;;;;;9.22;72.62;100851.16;18420539;32;20467;-60
2022/12/26 19:12:39;;;;;;;1.45;1.37;;;;;;;8.91;73.50;100838.66;18420061;32;20361;-60
2022/12/26 19:22:44;;;;;;;3.62;1.50;;;;;;;9.11;72.80;100861.50;18360530;32;20459;-60
2022/12/26 19:32:47;;;;;;;1.55;1.45;;;;;;;8.63;74.87;100853.09;18355276;32;20107;-60
2022/12/26 19:42:52;;;;;;;1.00;1.00;;;;;;;8.55;74.77;100847.78;18354388;32;20116;-60
2022/12/26 19:52:56;;;;;;;3.20;2.90;;;;;;;9.19;72.32;100858.97;18355103;32;20107;-60
2022/12/26 20:03:00;;;;;;;2.20;1.42;;;;;;;9.33;71.49;100891.22;18354374;32;20178;-61
2022/12/26 20:13:04;;;;;;;1.80;1.70;;;;;;;9.48;70.97;100879.22;18388758;32;20107;-60
2022/12/26 20:23:08;;;;;;;0.90;0.90;;;;;;;9.29;71.35;100882.53;18384086;32;20112;-60
2022/12/26 20:33:11;;;;;;;0.85;0.80;;;;;;;9.44;71.60;100896.56;18362406;32;20096;-60
2022/12/26 20:43:16;;;;;;;1.45;1.35;;;;;;;9.70;70.15;100857.72;18354345;32;20166;-60
2022/12/26 20:53:19;;;;;;;1.37;1.27;;;;;;;9.38;71.83;100860.00;18351941;32;20112;-60
2022/12/26 21:03:24;;;;;;;1.73;0.85;;;;;;;9.32;71.89;100852.16;18353979;32;20113;-60
2022/12/26 21:13:27;;;;;;;3.20;2.47;;;;;;;9.08;72.37;100861.44;18361145;32;20153;-60
2022/12/26 21:23:32;;;;;;;0.68;0.68;;;;;;;9.33;71.56;100873.00;18362020;32;20137;-60
2022/12/26 21:33:35;;;;;;;0.85;0.85;;;;;;;9.03;72.67;100882.22;18385231;32;20120;-60
2022/12/26 21:43:48;;;;;;;1.00;1.00;;;;;;;9.07;72.75;100884.03;18404007;32;20093;-60
2022/12/26 21:55:24;;;;;;;0.90;0.90;;;;;;;9.14;72.76;100867.56;18389561;32;20098;-60
2022/12/26 22:04:19;;;;;;;3.08;2.62;;;;;;;9.16;72.35;100857.19;18388044;32;20097;-60
2022/12/26 22:14:23;;;;;;;1.65;1.55;;;;;;;9.24;72.52;100855.53;18386274;32;20415;-60
2022/12/26 22:24:27;;;;;;;4.12;1.48;;;;;;;9.13;72.64;100855.41;18385550;32;20132;-60
2022/12/26 22:34:30;;;;;;;1.77;1.67;;;;;;;9.23;72.21;100861.63;18386734;32;20182;-60
2022/12/26 22:44:35;;;;;;;1.65;1.55;;;;;;;9.39;71.48;100847.00;18359971;32;20133;-60
2022/12/26 22:54:40;;;;;;;2.17;1.87;;;;;;;9.08;72.45;100851.00;18357374;32;20108;-60
2022/12/26 23:04:45;;;;;;;1.48;1.37;;;;;;;9.39;71.24;100872.19;18355880;32;20097;-60
2022/12/26 23:14:48;;;;;;;1.62;1.58;;;;;;;9.46;71.07;100868.78;18356009;32;20127;-60
2022/12/26 23:24:52;;;;;;;0.60;0.60;;;;;;;9.39;71.33;100893.91;18371315;32;20139;-60
2022/12/26 23:34:56;;;;;;;5.25;3.33;;;;;;;9.67;70.09;100890.69;18446293;31;20444;-60
2022/12/26 23:45:00;;;;;;;1.40;1.30;;;;;;;9.62;70.12;100892.41;18418955;32;20153;-60
2022/12/26 23:55:04;;;;;;;1.10;1.10;;;;;;;9.52;70.34;100901.84;18418439;32;20085;-60
